Time;durP1;ratioP1;P1;durP2;ratioP2;P2;SDS_P1;SDS_P2;PMS_P1;PMS_P2;Temp;Humidity;BMP_temperature;BMP_pressure;BME280_temperature;BME280_humidity;BME280_pressure;Samples;Min_cycle;Max_cycle;Signal;HPM_P1;HPM_P2
2022/01/11 00:01:20;;;;;;;22.50;13.77;;;;;;;2.50;61.67;100340.97;5007138;28;20224;-67
2022/01/11 00:03:47;;;;;;;23.60;14.97;;;;;;;2.21;62.51;100320.09;5007701;28;20223;-67
2022/01/11 00:08:45;;;;;;;20.37;14.07;;;;;;;2.44;61.97;100336.09;5009122;28;20234;-67
2022/01/11 00:11:12;;;;;;;29.50;15.07;;;;;;;2.24;62.48;100325.16;5009902;28;20227;-67
2022/01/11 00:13:41;;;;;;;22.57;14.67;;;;;;;2.52;62.24;100339.06;5008655;28;20226;-67
2022/01/11 00:16:13;;;;;;;27.37;15.80;;;;;;;2.48;62.44;100335.78;5007992;28;20238;-67
2022/01/11 00:18:40;;;;;;;26.47;16.13;;;;;;;2.37;62.54;100334.84;5008242;28;20392;-67
2022/01/11 00:21:07;;;;;;;24.37;13.83;;;;;;;2.13;63.00;100325.84;5009769;28;20769;-67
2022/01/11 00:26:03;;;;;;;28.33;15.30;;;;;;;1.66;64.14;100319.34;5008964;28;20237;-67
2022/01/11 00:28:30;;;;;;;27.70;15.23;;;;;;;1.25;65.32;100303.59;5008597;28;20230;-67
2022/01/11 00:30:57;;;;;;;23.73;14.80;;;;;;;0.68;67.09;100286.13;5006270;28;20238;-67
2022/01/11 00:33:47;;;;;;;31.90;16.83;;;;;;;0.70;67.73;100327.09;5007191;28;20229;-67
2022/01/11 00:36:12;;;;;;;25.00;15.20;;;;;;;0.43;68.35;100319.13;5008565;28;20611;-67
2022/01/11 00:38:41;;;;;;;29.67;16.10;;;;;;;0.47;68.49;100327.66;5008214;28;20783;-67
2022/01/11 00:41:11;;;;;;;32.17;16.67;;;;;;;0.38;68.94;100327.28;5007171;28;20945;-67
2022/01/11 00:43:40;;;;;;;27.43;16.47;;;;;;;0.31;69.11;100322.50;5023624;28;20234;-67
2022/01/11 00:46:09;;;;;;;29.10;14.60;;;;;;;0.82;67.47;100338.63;5008724;28;20248;-67
2022/01/11 00:48:39;;;;;;;27.80;16.27;;;;;;;1.00;66.86;100344.53;5006636;28;20230;-67
2022/01/11 00:51:08;;;;;;;25.30;15.80;;;;;;;1.21;66.19;100342.34;5009063;28;20645;-67
2022/01/11 00:53:35;;;;;;;32.73;16.47;;;;;;;1.22;66.31;100343.22;5022735;28;20223;-67
2022/01/11 00:56:02;;;;;;;26.40;16.23;;;;;;;1.68;64.96;100343.75;5005384;28;20230;-67
2022/01/11 00:58:29;;;;;;;27.07;16.13;;;;;;;1.55;65.39;100343.72;5005839;28;20226;-67
2022/01/11 01:00:56;;;;;;;33.70;16.07;;;;;;;1.55;65.42;100343.72;5006023;28;20217;-67
2022/01/11 01:03:24;;;;;;;28.17;16.10;;;;;;;1.77;64.84;100341.47;4993853;28;20221;-67
2022/01/11 01:05:51;;;;;;;29.87;16.13;;;;;;;1.35;65.09;100305.53;5028084;28;20228;-67
2022/01/11 01:08:19;;;;;;;31.77;16.27;;;;;;;1.56;65.16;100326.97;5027344;28;20308;-67
2022/01/11 01:10:46;;;;;;;29.13;16.83;;;;;;;1.73;65.22;100344.28;5012047;28;20216;-67
2022/01/11 01:13:19;;;;;;;25.57;16.50;;;;;;;1.31;66.22;100332.09;5026900;28;20233;-67
2022/01/11 01:15:48;;;;;;;26.93;17.20;;;;;;;1.41;65.82;100333.19;5011841;28;20227;-68
2022/01/11 01:18:20;;;;;;;24.20;15.83;;;;;;;1.39;65.69;100332.44;5010104;28;20242;-67
2022/01/11 01:20:49;;;;;;;31.83;16.43;;;;;;;1.28;65.99;100338.41;5009675;28;20613;-67
2022/01/11 01:23:16;;;;;;;24.43;15.00;;;;;;;1.34;65.70;100334.53;5009942;28;20725;-67
2022/01/11 01:25:45;;;;;;;31.67;16.40;;;;;;;1.43;66.01;100348.91;5027350;28;20229;-67
2022/01/11 01:28:13;;;;;;;25.80;15.00;;;;;;;1.13;67.02;100345.47;5027599;28;20230;-66
2022/01/11 01:30:40;;;;;;;28.50;16.43;;;;;;;1.51;65.70;100352.72;5024767;28;20242;-67
2022/01/11 01:33:07;;;;;;;31.30;16.13;;;;;;;1.48;66.06;100357.34;5009137;28;20613;-67
2022/01/11 01:35:39;;;;;;;21.77;15.13;;;;;;;1.19;66.94;100355.56;5027592;28;20224;-67
2022/01/11 01:38:09;;;;;;;27.63;16.17;;;;;;;1.36;66.58;100364.19;5026499;28;20226;-67
2022/01/11 01:40:42;;;;;;;31.67;15.60;;;;;;;1.20;65.97;100345.94;5023290;28;20449;-67
2022/01/11 01:43:13;;;;;;;30.87;15.97;;;;;;;1.62;65.86;100367.81;4990157;28;20584;-67
2022/01/11 01:45:43;;;;;;;29.10;15.13;;;;;;;1.27;66.68;100364.78;4989034;28;20722;-67
2022/01/11 01:48:12;;;;;;;30.17;16.33;;;;;;;1.17;66.38;100357.47;5006299;28;20232;-67
2022/01/11 01:50:40;;;;;;;26.63;16.30;;;;;;;1.45;65.81;100366.28;5025284;28;20843;-67
2022/01/11 01:53:10;;;;;;;28.67;16.13;;;;;;;1.43;65.72;100362.03;5026773;28;20238;-67
2022/01/11 01:55:39;;;;;;;29.20;15.77;;;;;;;1.89;65.11;100383.59;5027175;28;20706;-67
2022/01/11 01:58:07;;;;;;;31.37;15.47;;;;;;;1.76;65.13;100374.81;5016502;28;20225;-67
2022/01/11 02:00:40;;;;;;;28.63;15.70;;;;;;;1.67;65.64;100384.16;5006024;28;20226;-67
2022/01/11 02:03:12;;;;;;;34.27;16.27;;;;;;;1.73;65.37;100373.22;5026861;28;20222;-67
2022/01/11 02:05:41;;;;;;;26.30;14.80;;;;;;;1.89;65.18;100380.13;5009105;28;20226;-67
2022/01/11 02:08:09;;;;;;;27.27;15.73;;;;;;;1.90;64.59;100363.38;5026891;28;20248;-67
2022/01/11 02:10:38;;;;;;;26.07;15.03;;;;;;;1.76;64.60;100353.78;5025295;28;20702;-67
2022/01/11 02:13:08;;;;;;;24.10;14.63;;;;;;;1.76;64.61;100366.94;5026650;28;20237;-67
2022/01/11 02:15:36;;;;;;;28.83;16.20;;;;;;;1.70;64.83;100367.31;5026370;28;20217;-67
2022/01/11 02:18:11;;;;;;;29.40;15.47;;;;;;;1.50;65.58;100360.69;5027151;28;20218;-67
2022/01/11 02:20:44;;;;;;;35.33;16.90;;;;;;;1.89;64.25;100369.63;5006167;28;22088;-68
2022/01/11 02:23:16;;;;;;;29.93;16.97;;;;;;;1.52;65.13;100361.47;4988578;28;20699;-67
2022/01/11 02:25:44;;;;;;;27.70;16.37;;;;;;;1.91;64.02;100376.44;5006972;28;20614;-67
2022/01/11 02:28:14;;;;;;;25.53;15.33;;;;;;;1.71;64.87;100375.09;5006329;28;20231;-68
2022/01/11 02:30:41;;;;;;;25.33;15.23;;;;;;;1.87;64.77;100380.22;5004304;28;20229;-67
2022/01/11 02:33:19;;;;;;;31.57;16.43;;;;;;;1.07;66.67;100358.97;4988999;28;20694;-67
2022/01/11 02:35:50;;;;;;;27.50;15.70;;;;;;;1.46;65.75;100375.84;5006746;28;20229;-67
2022/01/11 02:38:18;;;;;;;27.07;14.77;;;;;;;1.42;66.01;100378.75;5005409;28;20230;-67
2022/01/11 02:40:45;;;;;;;27.33;16.63;;;;;;;1.47;65.95;100385.41;5006987;28;20227;-68
2022/01/11 02:43:12;;;;;;;25.17;15.40;;;;;;;1.11;66.92;100376.25;4989241;28;20237;-67
2022/01/11 02:45:39;;;;;;;29.43;16.00;;;;;;;1.37;66.05;100381.66;5006322;28;20233;-67
2022/01/11 02:48:07;;;;;;;25.70;15.80;;;;;;;1.42;65.77;100382.22;4989196;28;20229;-67
2022/01/11 02:50:34;;;;;;;27.97;16.37;;;;;;;1.61;65.09;100391.59;4988685;28;20230;-67
2022/01/11 02:53:02;;;;;;;31.13;16.13;;;;;;;1.24;65.82;100383.38;5006599;28;20234;-67
2022/01/11 02:55:29;;;;;;;27.97;16.80;;;;;;;1.29;65.43;100381.28;5006593;28;20700;-67
2022/01/11 02:57:56;;;;;;;29.13;16.00;;;;;;;1.23;65.06;100372.03;4982184;28;20313;-67
2022/01/11 03:00:24;;;;;;;27.87;15.83;;;;;;;1.65;64.40;100398.31;5003115;28;20236;-67
2022/01/11 03:02:51;;;;;;;28.27;15.67;;;;;;;1.17;65.62;100375.03;5006030;28;20228;-67
2022/01/11 03:05:18;;;;;;;31.73;16.00;;;;;;;1.31;65.68;100395.19;5006796;28;20230;-67
2022/01/11 03:07:45;;;;;;;25.23;15.27;;;;;;;1.49;64.97;100393.22;5004867;28;20232;-67
2022/01/11 03:10:27;;;;;;;32.33;16.83;;;;;;;1.52;64.94;100393.88;5006383;28;20229;-67
2022/01/11 03:12:54;;;;;;;27.67;15.93;;;;;;;1.45;65.70;100407.47;4988305;28;20230;-67
2022/01/11 03:15:21;;;;;;;28.40;16.40;;;;;;;1.68;64.69;100396.34;5006157;28;20243;-67
2022/01/11 03:17:48;;;;;;;29.63;16.37;;;;;;;1.69;65.18;100407.72;5006037;28;20230;-67
2022/01/11 03:20:15;;;;;;;28.27;15.47;;;;;;;1.82;64.47;100399.88;5018568;28;20222;-68
2022/01/11 03:22:42;;;;;;;31.80;15.60;;;;;;;1.52;65.31;100390.41;5006090;28;20237;-67
2022/01/11 03:25:09;;;;;;;25.07;16.33;;;;;;;1.58;64.60;100389.97;5006149;28;20232;-67
2022/01/11 03:27:38;;;;;;;26.03;15.90;;;;;;;2.48;62.27;100385.00;5004961;28;20229;-67
2022/01/11 03:30:07;;;;;;;27.67;15.53;;;;;;;2.03;63.33;100389.75;5005413;28;20601;-68
2022/01/11 03:32:34;;;;;;;27.10;15.27;;;;;;;1.80;63.66;100383.34;4986815;28;20234;-68
2022/01/11 03:35:05;;;;;;;34.63;17.33;;;;;;;2.00;63.13;100385.50;5005805;28;20334;-68
2022/01/11 03:37:32;;;;;;;32.27;16.67;;;;;;;1.86;63.39;100378.53;5005633;28;20729;-68
2022/01/11 03:39:59;;;;;;;30.17;15.90;;;;;;;1.93;63.32;100389.50;5006067;28;20255;-68
2022/01/11 03:42:27;;;;;;;28.30;15.03;;;;;;;1.77;63.12;100378.28;5005666;28;20244;-67
2022/01/11 03:44:54;;;;;;;27.53;16.07;;;;;;;1.49;64.16;100387.97;5005471;28;20758;-68
2022/01/11 03:47:21;;;;;;;33.00;17.13;;;;;;;1.89;63.25;100394.13;5006174;28;20218;-67
2022/01/11 03:49:48;;;;;;;28.77;15.43;;;;;;;1.59;64.36;100391.69;5004929;28;20226;-67
2022/01/11 03:52:15;;;;;;;30.57;16.77;;;;;;;1.74;63.90;100406.47;5005702;28;20648;-67
2022/01/11 03:57:23;;;;;;;27.43;16.30;;;;;;;1.52;64.17;100398.28;5000200;28;20231;-67
2022/01/11 03:59:50;;;;;;;25.83;16.57;;;;;;;1.97;63.70;100414.66;5006480;28;20233;-67
2022/01/11 04:02:18;;;;;;;28.90;16.97;;;;;;;1.19;65.38;100397.63;5003021;28;20237;-67
2022/01/11 04:04:52;;;;;;;33.17;19.07;;;;;;;1.36;65.00;100407.13;5006030;28;20217;-67
2022/01/11 04:07:22;;;;;;;26.03;16.60;;;;;;;1.86;63.89;100418.00;5006030;28;20231;-67
2022/01/11 04:09:50;;;;;;;35.27;17.00;;;;;;;1.24;65.04;100392.09;5008026;28;20238;-67
2022/01/11 04:12:17;;;;;;;26.20;16.07;;;;;;;1.57;63.97;100412.81;5009632;28;20713;-67
2022/01/11 04:14:44;;;;;;;31.57;17.00;;;;;;;1.36;64.71;100412.38;5008773;28;20227;-67
2022/01/11 04:17:12;;;;;;;27.83;16.23;;;;;;;1.48;64.52;100413.41;5008336;28;20288;-68
2022/01/11 04:19:40;;;;;;;28.50;17.00;;;;;;;1.35;64.88;100418.56;5008232;28;20238;-67
2022/01/11 04:22:07;;;;;;;26.43;17.00;;;;;;;1.46;63.72;100422.31;5009522;28;20222;-68
2022/01/11 04:24:34;;;;;;;30.67;16.40;;;;;;;1.57;64.06;100425.97;5008326;28;20235;-67
2022/01/11 04:27:01;;;;;;;28.67;16.13;;;;;;;1.20;64.40;100412.47;5014577;28;20231;-67
2022/01/11 04:29:28;;;;;;;26.67;16.57;;;;;;;1.14;64.52;100414.63;5027623;28;20250;-67
2022/01/11 04:31:55;;;;;;;33.17;16.63;;;;;;;0.82;65.84;100412.19;5026063;28;20229;-67
2022/01/11 04:34:22;;;;;;;26.37;16.67;;;;;;;1.20;65.10;100430.84;5027674;28;20222;-67
2022/01/11 04:36:49;;;;;;;28.83;16.80;;;;;;;1.26;64.99;100448.03;5016402;28;20232;-67
2022/01/11 04:39:16;;;;;;;33.23;17.03;;;;;;;1.36;64.77;100451.81;5011620;28;20223;-70
2022/01/11 04:41:45;;;;;;;31.17;17.07;;;;;;;1.17;64.70;100443.34;4994125;28;20226;-67
2022/01/11 04:44:12;;;;;;;27.87;15.43;;;;;;;1.24;65.19;100460.41;5012109;28;20214;-66
2022/01/11 04:46:39;;;;;;;22.63;15.03;;;;;;;1.41;65.03;100462.00;5012754;28;20234;-67
2022/01/11 04:49:07;;;;;;;26.53;16.40;;;;;;;1.07;65.79;100456.19;5011243;28;20232;-67
2022/01/11 04:51:35;;;;;;;25.63;15.73;;;;;;;1.11;65.57;100448.97;5013291;28;20259;-67
2022/01/11 04:54:03;;;;;;;28.77;15.80;;;;;;;1.41;64.65;100463.81;5017517;28;20217;-67
2022/01/11 04:56:30;;;;;;;23.87;14.73;;;;;;;1.43;64.32;100472.47;5020960;28;20223;-67
2022/01/11 04:58:57;;;;;;;24.83;16.10;;;;;;;1.25;65.03;100466.53;5026205;28;20221;-67
2022/01/11 05:01:24;;;;;;;25.37;14.77;;;;;;;1.42;64.50;100478.66;5005881;28;20230;-67
2022/01/11 05:03:52;;;;;;;26.37;15.73;;;;;;;1.19;64.98;100459.88;5025633;28;20226;-67
2022/01/11 05:06:19;;;;;;;24.80;16.13;;;;;;;1.63;64.06;100481.75;5027379;28;20225;-67
2022/01/11 05:08:46;;;;;;;28.67;15.77;;;;;;;1.40;64.57;100473.47;5026793;28;20230;-67
2022/01/11 05:11:13;;;;;;;28.77;16.37;;;;;;;1.31;65.02;100474.88;5027470;28;20669;-67
2022/01/11 05:13:40;;;;;;;26.37;16.17;;;;;;;1.52;64.27;100475.38;5027706;28;20241;-67
2022/01/11 05:16:09;;;;;;;30.40;16.33;;;;;;;1.07;64.61;100450.09;5020963;28;20223;-67
2022/01/11 05:18:37;;;;;;;30.30;15.50;;;;;;;1.33;64.71;100475.66;5025634;28;20789;-67
2022/01/11 05:21:05;;;;;;;29.07;16.03;;;;;;;1.45;64.66;100479.34;5010883;28;20222;-67
2022/01/11 05:23:34;;;;;;;27.10;15.17;;;;;;;1.48;64.48;100476.53;5015440;28;20233;-67
2022/01/11 05:26:02;;;;;;;29.90;17.27;;;;;;;1.78;63.73;100486.03;4996904;28;20713;-67
2022/01/11 05:28:30;;;;;;;28.23;16.47;;;;;;;1.24;64.85;100467.47;5012126;28;20223;-67
2022/01/11 05:30:57;;;;;;;30.37;17.87;;;;;;;1.46;65.36;100493.31;5012904;28;20228;-67
2022/01/11 05:33:24;;;;;;;30.83;16.73;;;;;;;1.23;65.08;100463.16;5008335;28;20481;-67
2022/01/11 05:35:51;;;;;;;31.10;16.37;;;;;;;1.48;64.62;100470.41;5013558;28;20217;-67
2022/01/11 05:38:18;;;;;;;31.20;18.63;;;;;;;1.53;65.00;100486.72;4993578;28;20225;-67
2022/01/11 05:40:45;;;;;;;31.47;19.07;;;;;;;1.65;64.44;100490.38;4994472;28;20597;-67
2022/01/11 05:43:14;;;;;;;28.93;15.47;;;;;;;1.23;65.51;100466.63;5011824;28;20264;-67
2022/01/11 05:45:42;;;;;;;29.60;16.47;;;;;;;1.58;65.16;100505.69;5025812;28;20222;-67
2022/01/11 05:48:09;;;;;;;32.30;16.27;;;;;;;1.60;64.86;100492.44;5010728;28;20238;-67
2022/01/11 05:50:38;;;;;;;29.30;16.33;;;;;;;1.29;65.95;100489.06;5009595;28;20640;-66
2022/01/11 05:53:05;;;;;;;26.97;16.20;;;;;;;1.37;65.89;100494.69;5008768;28;20227;-67
2022/01/11 05:55:32;;;;;;;27.70;16.97;;;;;;;1.39;65.73;100504.16;5010274;28;20294;-66
2022/01/11 05:58:00;;;;;;;28.13;16.43;;;;;;;1.57;65.43;100515.38;5008851;28;20221;-67
2022/01/11 06:00:27;;;;;;;29.97;17.23;;;;;;;1.15;66.85;100503.03;5009697;28;20616;-67
2022/01/11 06:02:55;;;;;;;33.73;16.20;;;;;;;1.90;64.60;100521.25;5026264;28;20229;-67
2022/01/11 06:05:23;;;;;;;29.10;16.67;;;;;;;1.42;65.35;100503.16;5026837;28;20218;-67
2022/01/11 06:07:51;;;;;;;25.87;16.00;;;;;;;1.82;64.69;100510.34;5026291;28;20235;-67
2022/01/11 06:10:18;;;;;;;28.80;15.77;;;;;;;1.59;65.37;100515.28;5026129;28;20241;-67
2022/01/11 06:12:45;;;;;;;27.73;16.87;;;;;;;1.85;64.44;100503.13;5015951;28;20225;-67
2022/01/11 06:15:12;;;;;;;34.23;16.33;;;;;;;1.81;64.17;100491.09;5010790;28;20233;-67
2022/01/11 06:17:39;;;;;;;27.07;15.57;;;;;;;1.73;65.32;100517.06;5010073;28;20232;-67
2022/01/11 06:20:08;;;;;;;32.47;16.50;;;;;;;1.55;65.33;100514.63;4991035;28;20233;-67
2022/01/11 06:22:36;;;;;;;30.80;17.10;;;;;;;1.68;65.43;100519.13;5007988;28;20605;-67
2022/01/11 06:25:05;;;;;;;22.73;15.00;;;;;;;1.54;65.58;100515.56;4991523;28;20785;-67
2022/01/11 06:27:33;;;;;;;28.97;15.97;;;;;;;1.89;65.14;100527.47;5018603;28;20601;-67
2022/01/11 06:30:00;;;;;;;25.57;14.97;;;;;;;1.64;65.20;100515.84;5016553;28;20242;-67
2022/01/11 06:32:27;;;;;;;32.47;16.70;;;;;;;1.92;64.99;100530.75;5007627;28;20254;-67
2022/01/11 06:34:55;;;;;;;28.80;16.03;;;;;;;1.70;65.74;100531.25;5021378;28;20220;-67
2022/01/11 06:37:22;;;;;;;27.07;16.67;;;;;;;1.54;65.87;100531.34;5008878;28;20233;-67
2022/01/11 06:39:49;;;;;;;30.17;17.47;;;;;;;1.72;65.57;100536.41;4993322;28;20237;-67
2022/01/11 06:42:16;;;;;;;31.60;17.27;;;;;;;2.00;64.90;100537.31;5022057;28;20235;-67
2022/01/11 06:44:43;;;;;;;35.67;17.70;;;;;;;1.28;66.01;100516.28;5006645;28;20221;-67
2022/01/11 06:47:11;;;;;;;27.00;16.87;;;;;;;1.60;66.09;100538.03;5011341;28;20796;-67
2022/01/11 06:49:39;;;;;;;27.13;16.23;;;;;;;1.71;65.54;100542.59;4994689;28;20234;-67
2022/01/11 06:52:06;;;;;;;28.00;17.30;;;;;;;1.43;66.57;100541.66;5026196;28;20229;-67
2022/01/11 06:54:33;;;;;;;27.93;16.50;;;;;;;1.94;65.21;100546.44;5007608;28;20232;-67
2022/01/11 06:57:00;;;;;;;28.20;17.20;;;;;;;2.00;65.19;100548.66;5020457;28;20228;-67
2022/01/11 06:59:27;;;;;;;27.90;17.20;;;;;;;1.90;65.31;100542.28;5026093;28;20233;-67
2022/01/11 07:01:54;;;;;;;29.03;16.33;;;;;;;1.88;65.05;100537.13;5023227;28;20222;-67
2022/01/11 07:04:21;;;;;;;26.77;16.90;;;;;;;2.06;64.64;100535.13;5024643;28;20227;-67
2022/01/11 07:06:48;;;;;;;29.03;17.03;;;;;;;2.03;64.53;100537.13;5026197;28;20228;-66
2022/01/11 07:09:15;;;;;;;33.30;17.07;;;;;;;2.13;64.79;100548.75;5025832;28;20229;-67
2022/01/11 07:11:42;;;;;;;30.93;16.73;;;;;;;2.07;64.64;100539.47;5026372;28;20236;-67
2022/01/11 07:14:11;;;;;;;28.80;16.43;;;;;;;1.86;65.21;100530.28;5045472;23;20245;-66
2022/01/11 07:16:38;;;;;;;31.40;17.83;;;;;;;1.59;66.40;100546.84;5020550;28;20236;-67
2022/01/11 07:19:05;;;;;;;30.17;17.93;;;;;;;1.74;65.72;100548.53;5006640;28;20230;-67
2022/01/11 07:21:34;;;;;;;30.70;16.83;;;;;;;1.64;66.30;100555.28;5006669;28;20233;-67
2022/01/11 07:24:02;;;;;;;31.13;17.60;;;;;;;1.72;66.26;100565.34;5006112;28;20261;-66
2022/01/11 07:26:29;;;;;;;29.77;17.87;;;;;;;1.45;67.08;100558.22;5005761;28;20232;-66
2022/01/11 07:28:56;;;;;;;34.17;17.33;;;;;;;1.82;65.88;100565.59;5006955;28;20473;-67
2022/01/11 07:31:23;;;;;;;31.07;17.70;;;;;;;2.09;65.01;100563.03;5006444;28;20219;-67
2022/01/11 07:33:51;;;;;;;27.93;16.70;;;;;;;2.10;65.34;100577.88;4988752;28;20223;-67
2022/01/11 07:36:18;;;;;;;28.00;16.13;;;;;;;1.34;68.75;100597.41;5006382;28;20232;-67
2022/01/11 07:38:45;;;;;;;26.37;15.77;;;;;;;1.52;67.79;100595.50;5006172;28;20604;-67
2022/01/11 07:41:12;;;;;;;28.63;16.00;;;;;;;2.50;64.63;100581.44;5006716;28;20232;-67
2022/01/11 07:43:39;;;;;;;29.40;17.13;;;;;;;2.23;64.66;100560.38;5006229;28;20603;-67
2022/01/11 07:46:06;;;;;;;27.63;16.37;;;;;;;2.38;64.28;100579.63;5010236;28;20249;-67
2022/01/11 07:48:33;;;;;;;26.37;16.23;;;;;;;2.09;65.22;100582.31;5009469;28;20238;-67
2022/01/11 07:51:00;;;;;;;27.60;16.03;;;;;;;2.59;63.60;100576.53;5010273;28;20233;-67
2022/01/11 07:53:26;;;;;;;30.90;16.50;;;;;;;2.08;65.88;100600.84;5009711;28;20720;-67
2022/01/11 07:55:54;;;;;;;27.87;15.23;;;;;;;2.19;65.23;100595.75;5009812;28;20580;-67
2022/01/11 07:58:21;;;;;;;25.67;16.17;;;;;;;1.62;66.23;100587.88;4992204;28;20226;-67
2022/01/11 08:00:48;;;;;;;28.87;16.33;;;;;;;2.02;66.20;100609.09;5010010;28;20594;-67
2022/01/11 08:03:15;;;;;;;31.63;15.17;;;;;;;1.50;67.71;100600.84;5010327;28;20706;-67
2022/01/11 08:05:42;;;;;;;31.97;16.77;;;;;;;1.57;67.04;100596.91;5009567;28;20235;-67
2022/01/11 08:08:09;;;;;;;30.17;16.07;;;;;;;2.34;65.29;100607.06;5010006;28;20227;-67
2022/01/11 08:10:36;;;;;;;26.93;15.70;;;;;;;1.99;65.62;100594.38;4992155;28;20237;-67
2022/01/11 08:13:06;;;;;;;25.20;15.60;;;;;;;2.21;65.63;100608.81;5009449;28;20224;-68
2022/01/11 08:15:33;;;;;;;28.60;17.07;;;;;;;1.70;66.54;100594.38;5009783;28;20462;-67
2022/01/11 08:18:01;;;;;;;31.43;16.37;;;;;;;2.36;65.33;100607.84;5009653;28;20588;-67
2022/01/11 08:20:28;;;;;;;28.07;16.50;;;;;;;2.16;65.83;100613.50;5009317;28;20218;-67
2022/01/11 08:22:56;;;;;;;29.30;16.43;;;;;;;2.20;64.42;100593.94;5009120;28;20736;-67
2022/01/11 08:25:26;;;;;;;33.60;17.20;;;;;;;1.89;66.36;100598.50;5009604;28;20239;-67
2022/01/11 08:27:53;;;;;;;25.50;15.70;;;;;;;2.34;65.14;100603.59;5008883;28;20229;-67
2022/01/11 08:30:20;;;;;;;32.40;16.27;;;;;;;2.56;64.77;100606.56;5008735;28;20576;-67
2022/01/11 08:32:47;;;;;;;26.27;17.03;;;;;;;1.94;66.05;100597.28;5008821;28;20230;-68
2022/01/11 08:35:14;;;;;;;29.70;18.60;;;;;;;2.13;65.59;100610.13;4992048;28;20233;-67
2022/01/11 08:37:41;;;;;;;33.13;19.50;;;;;;;2.40;64.72;100597.97;5009161;28;20656;-68
2022/01/11 08:40:09;;;;;;;31.80;18.60;;;;;;;2.29;64.73;100607.38;5009282;28;20627;-68
2022/01/11 08:42:36;;;;;;;28.03;17.37;;;;;;;2.11;65.19;100598.03;5008913;28;20233;-67
2022/01/11 08:45:04;;;;;;;30.60;18.00;;;;;;;2.63;64.59;100604.34;5008802;28;20228;-67
2022/01/11 08:47:32;;;;;;;29.20;18.80;;;;;;;2.47;64.97;100613.25;5009085;28;20239;-67
2022/01/11 08:50:00;;;;;;;27.27;18.03;;;;;;;2.15;65.78;100615.28;5009201;28;20229;-67
2022/01/11 08:52:28;;;;;;;29.67;17.33;;;;;;;2.17;65.81;100608.13;5008089;28;20224;-67
2022/01/11 08:54:55;;;;;;;31.17;18.70;;;;;;;2.13;65.68;100604.03;5008407;28;20237;-67
2022/01/11 08:57:23;;;;;;;27.40;17.10;;;;;;;2.15;66.36;100625.00;5008918;28;20215;-67
2022/01/11 08:59:50;;;;;;;29.00;16.97;;;;;;;2.21;65.25;100609.66;5009101;28;20224;-68
2022/01/11 09:02:20;;;;;;;28.47;16.87;;;;;;;2.73;64.77;100620.41;5008392;28;20528;-67
2022/01/11 09:04:50;;;;;;;28.37;17.37;;;;;;;2.84;64.61;100623.19;4991149;28;20797;-67
2022/01/11 09:07:17;;;;;;;26.77;17.63;;;;;;;2.12;65.90;100613.72;5008358;28;20233;-67
2022/01/11 09:09:45;;;;;;;30.77;17.50;;;;;;;2.37;65.51;100612.16;5008899;28;20227;-67
2022/01/11 09:12:14;;;;;;;30.63;17.17;;;;;;;2.44;65.00;100604.69;4991781;28;20219;-67
2022/01/11 09:14:42;;;;;;;31.77;18.67;;;;;;;2.39;65.31;100612.06;5026924;28;20899;-67
2022/01/11 09:17:09;;;;;;;33.30;21.80;;;;;;;2.28;65.61;100604.84;5028527;28;20223;-66
2022/01/11 09:19:37;;;;;;;35.47;19.93;;;;;;;2.47;65.21;100615.03;5028303;28;20229;-67
2022/01/11 09:22:04;;;;;;;32.33;19.03;;;;;;;2.73;64.66;100616.00;5028486;28;20222;-68
2022/01/11 09:24:36;;;;;;;30.93;18.23;;;;;;;2.35;65.82;100613.22;5027137;28;20233;-67
2022/01/11 09:27:05;;;;;;;29.83;17.90;;;;;;;2.44;65.49;100617.88;5010918;28;20223;-67
2022/01/11 09:29:33;;;;;;;29.30;18.13;;;;;;;2.20;66.21;100622.91;5028226;28;20232;-67
2022/01/11 09:32:00;;;;;;;33.53;19.10;;;;;;;2.48;66.21;100633.38;5028346;28;20229;-67
2022/01/11 09:34:28;;;;;;;29.47;18.13;;;;;;;2.42;66.13;100622.41;5027044;28;20618;-66
2022/01/11 09:36:55;;;;;;;33.43;18.10;;;;;;;2.84;64.94;100621.41;5021537;28;20861;-67
2022/01/11 09:39:23;;;;;;;33.57;17.53;;;;;;;3.10;64.06;100612.72;5028164;28;20602;-68
2022/01/11 09:41:50;;;;;;;32.27;18.07;;;;;;;2.77;64.91;100612.22;5027584;28;20229;-67
2022/01/11 09:44:17;;;;;;;31.63;18.93;;;;;;;2.80;65.44;100630.47;5027437;28;20237;-69
2022/01/11 09:46:45;;;;;;;32.87;18.77;;;;;;;2.47;65.99;100633.47;5027610;28;20227;-67
2022/01/11 09:49:11;;;;;;;29.40;18.83;;;;;;;2.37;66.26;100632.38;5028194;28;20236;-66
2022/01/11 09:51:39;;;;;;;37.57;19.10;;;;;;;2.05;66.52;100608.91;5010532;28;20606;-67
2022/01/11 09:54:08;;;;;;;32.37;19.30;;;;;;;2.18;66.67;100636.16;5027085;28;20696;-67
2022/01/11 09:56:36;;;;;;;27.73;18.40;;;;;;;2.57;66.34;100645.13;5027229;28;20227;-67
2022/01/11 09:59:05;;;;;;;32.43;18.60;;;;;;;2.30;67.19;100661.72;5027737;28;20232;-67
2022/01/11 10:01:35;;;;;;;33.77;18.77;;;;;;;2.52;65.97;100638.47;5027298;28;20228;-66
2022/01/11 10:04:11;;;;;;;30.73;18.60;;;;;;;2.30;67.08;100655.63;5027221;28;20607;-67
2022/01/11 10:06:42;;;;;;;36.77;20.43;;;;;;;2.27;67.66;100668.97;5026341;28;20903;-67
2022/01/11 10:09:21;;;;;;;34.67;19.77;;;;;;;3.05;65.58;100661.34;5009779;28;20237;-66
2022/01/11 10:11:56;;;;;;;29.30;19.37;;;;;;;2.94;65.52;100636.63;5027541;28;20238;-67
2022/01/11 10:14:31;;;;;;;37.83;20.27;;;;;;;2.77;66.12;100635.09;5026564;28;20226;-67
2022/01/11 10:17:23;;;;;;;32.87;18.90;;;;;;;2.51;66.09;100616.53;5027108;28;20812;-68
2022/01/11 10:20:20;;;;;;;33.50;19.43;;;;;;;2.93;65.41;100632.28;5027702;28;20222;-67
2022/01/11 10:22:57;;;;;;;30.40;19.20;;;;;;;2.53;67.40;100645.41;5026120;28;20567;-67
2022/01/11 10:25:24;;;;;;;31.17;20.03;;;;;;;3.29;65.09;100628.16;5027602;28;20725;-67
2022/01/11 10:27:56;;;;;;;39.53;20.70;;;;;;;2.63;66.20;100621.03;5022394;28;20231;-67
2022/01/11 10:30:25;;;;;;;29.63;18.20;;;;;;;2.96;66.05;100617.13;5026771;28;20231;-66
2022/01/11 10:32:55;;;;;;;36.87;20.37;;;;;;;3.44;65.20;100629.81;5026182;28;20222;-67
2022/01/11 10:35:24;;;;;;;36.03;20.73;;;;;;;3.45;64.76;100615.66;5027110;28;20227;-66
2022/01/11 10:38:13;;;;;;;31.23;21.13;;;;;;;3.31;65.04;100600.75;5026948;28;20219;-67
2022/01/11 10:40:45;;;;;;;36.83;21.43;;;;;;;3.01;66.16;100609.75;5014015;28;20643;-67
2022/01/11 10:43:18;;;;;;;37.93;20.70;;;;;;;3.32;65.75;100618.28;5046240;28;20226;-67
2022/01/11 10:45:48;;;;;;;33.27;19.10;;;;;;;3.24;65.96;100612.66;5047061;28;20234;-67
2022/01/11 10:48:24;;;;;;;36.17;20.37;;;;;;;2.58;67.68;100612.56;5046591;28;20222;-66
2022/01/11 10:50:56;;;;;;;29.83;19.13;;;;;;;3.01;66.99;100614.19;5043193;28;20830;-67
2022/01/11 10:53:28;;;;;;;32.87;19.70;;;;;;;3.58;65.76;100628.84;5042756;28;20225;-67
2022/01/11 10:55:57;;;;;;;32.03;19.37;;;;;;;2.89;67.04;100618.47;5046476;28;20341;-67
2022/01/11 10:59:03;;;;;;;33.70;19.10;;;;;;;3.11;66.98;100615.25;5045989;28;20717;-67
2022/01/11 11:03:49;;;;;;;29.30;16.90;;;;;;;2.10;70.49;100638.44;5083236;27;20582;-68
2022/01/11 11:06:16;;;;;;;29.93;18.03;;;;;;;2.19;70.86;100643.13;5050491;28;20230;-66
2022/01/11 11:08:45;;;;;;;31.77;18.37;;;;;;;2.55;70.12;100635.63;5045840;28;20222;-66
2022/01/11 11:11:20;;;;;;;27.27;17.73;;;;;;;2.69;68.97;100610.06;5048831;28;20223;-68
2022/01/11 11:13:51;;;;;;;33.43;20.70;;;;;;;2.92;68.90;100614.81;5043475;28;20211;-67
2022/01/11 11:16:29;;;;;;;30.57;18.27;;;;;;;2.61;69.38;100614.16;5043237;28;20245;-67
2022/01/11 11:19:01;;;;;;;29.67;17.87;;;;;;;2.91;68.93;100613.94;5043400;28;20220;-67
2022/01/11 11:21:37;;;;;;;32.80;19.23;;;;;;;2.73;69.87;100629.19;5043761;28;20232;-66
2022/01/11 11:24:07;;;;;;;30.97;17.97;;;;;;;3.11;68.55;100619.69;5048402;28;20226;-68
2022/01/11 11:26:46;;;;;;;32.33;18.10;;;;;;;3.31;67.74;100613.94;5042631;28;20310;-67
2022/01/11 11:29:14;;;;;;;32.90;18.37;;;;;;;3.18;68.63;100610.41;5051653;28;20241;-67
2022/01/11 11:32:01;;;;;;;29.73;20.00;;;;;;;3.20;68.13;100605.88;5037765;28;20229;-67
2022/01/11 11:34:30;;;;;;;42.50;24.90;;;;;;;3.21;67.26;100589.97;5041599;28;20238;-67